Time;durP1;ratioP1;P1;durP2;ratioP2;P2;SDS_P1;SDS_P2;PMS_P1;PMS_P2;Temp;Humidity;BMP_temperature;BMP_pressure;BME280_temperature;BME280_humidity;BME280_pressure;Samples;Min_cycle;Max_cycle;Signal;HPM_P1;HPM_P2
2023/09/21 00:00:21;;;;;;;5.47;1.73;;;17.20;1.00;;;;;;5035232;28;20450;-78
2023/09/21 00:02:49;;;;;;;3.70;1.30;;;17.30;1.00;;;;;;5028607;28;20041;-79
2023/09/21 00:05:22;;;;;;;3.20;1.20;;;17.20;1.00;;;;;;5032298;28;20041;-78
2023/09/21 00:07:49;;;;;;;2.97;1.20;;;17.20;1.00;;;;;;5040164;28;20051;-79
2023/09/21 00:10:15;;;;;;;3.45;1.40;;;17.20;1.00;;;;;;5044802;28;20039;-78
2023/09/21 00:12:41;;;;;;;4.00;1.35;;;17.30;1.00;;;;;;5024440;28;20414;-78
2023/09/21 00:15:21;;;;;;;3.35;1.50;;;17.20;1.00;;;;;;5045905;28;20049;-78
2023/09/21 00:17:50;;;;;;;2.30;1.40;;;17.30;1.00;;;;;;5032674;28;20138;-78
2023/09/21 00:20:28;;;;;;;2.50;1.08;;;17.40;1.00;;;;;;5046904;28;20084;-79
2023/09/21 00:22:55;;;;;;;3.10;1.50;;;17.40;1.00;;;;;;5026429;28;20182;-79
2023/09/21 00:25:25;;;;;;;1.77;1.30;;;17.40;1.00;;;;;;5041172;28;20048;-79
2023/09/21 00:27:51;;;;;;;2.50;1.42;;;17.40;1.00;;;;;;5045780;28;20051;-78
2023/09/21 00:30:17;;;;;;;4.43;1.40;;;17.40;1.00;;;;;;5048711;28;20037;-78
2023/09/21 00:32:43;;;;;;;3.78;1.20;;;17.30;1.00;;;;;;5026660;28;20041;-78
2023/09/21 00:35:10;;;;;;;3.17;1.50;;;17.30;1.00;;;;;;5056480;28;20041;-78
2023/09/21 00:37:36;;;;;;;4.40;1.50;;;17.30;1.00;;;;;;5044535;28;20483;-79
2023/09/21 00:40:13;;;;;;;3.03;1.50;;;17.30;1.00;;;;;;5031914;28;20245;-80
2023/09/21 00:42:41;;;;;;;4.70;1.30;;;17.30;1.00;;;;;;5031064;28;20041;-78
2023/09/21 00:45:08;;;;;;;3.33;2.03;;;17.30;1.00;;;;;;5044208;28;20113;-79
2023/09/21 00:47:38;;;;;;;1.60;1.00;;;17.20;1.00;;;;;;5053330;28;20125;-78
2023/09/21 00:50:07;;;;;;;3.20;1.35;;;17.10;1.00;;;;;;5052691;28;20071;-79
2023/09/21 00:52:33;;;;;;;3.10;1.60;;;17.10;1.00;;;;;;5025386;28;20075;-79
2023/09/21 00:54:59;;;;;;;3.78;1.17;;;17.10;1.00;;;;;;5033933;28;20238;-80
2023/09/21 00:57:25;;;;;;;3.92;2.00;;;17.10;1.00;;;;;;5029142;28;20608;-79
2023/09/21 00:59:52;;;;;;;3.22;1.63;;;17.00;1.00;;;;;;5042620;28;20131;-79
2023/09/21 01:02:18;;;;;;;2.53;1.50;;;17.00;1.00;;;;;;5040005;28;20446;-78
2023/09/21 01:04:44;;;;;;;3.33;1.30;;;17.00;1.00;;;;;;5025560;28;20055;-78
2023/09/21 01:07:17;;;;;;;3.85;1.60;;;17.00;1.00;;;;;;5058662;28;20044;-79
2023/09/21 01:09:43;;;;;;;4.55;1.58;;;17.00;1.00;;;;;;5043162;28;20044;-78
2023/09/21 01:12:13;;;;;;;3.08;1.35;;;17.00;1.00;;;;;;5022567;28;20044;-78
2023/09/21 01:14:41;;;;;;;4.82;1.70;;;17.00;1.00;;;;;;5046581;28;20059;-78
2023/09/21 01:17:07;;;;;;;4.70;1.50;;;17.00;1.00;;;;;;5030164;28;20380;-78
2023/09/21 01:19:32;;;;;;;3.80;1.42;;;16.90;1.00;;;;;;5043851;28;20113;-78
2023/09/21 01:22:03;;;;;;;3.40;1.58;;;16.80;1.00;;;;;;5036520;28;20426;-78
2023/09/21 01:24:28;;;;;;;4.10;1.40;;;16.80;1.00;;;;;;5038838;28;20537;-78
2023/09/21 01:26:54;;;;;;;3.15;1.55;;;16.80;1.00;;;;;;5046124;28;20041;-79
2023/09/21 01:29:20;;;;;;;2.80;1.48;;;16.70;1.00;;;;;;5045453;28;20040;-80
2023/09/21 01:31:45;;;;;;;5.63;1.80;;;16.60;1.80;;;;;;5028954;28;20127;-78
2023/09/21 01:34:11;;;;;;;4.05;1.60;;;16.70;29.50;;;;;;5028119;28;20123;-78
2023/09/21 01:36:39;;;;;;;2.85;1.88;;;16.50;54.00;;;;;;5021401;28;20049;-78
2023/09/21 01:39:09;;;;;;;4.07;2.00;;;16.50;81.90;;;;;;5039628;28;20115;-78
2023/09/21 01:41:35;;;;;;;3.28;1.77;;;16.40;99.90;;;;;;5044231;28;20534;-79
2023/09/21 01:44:01;;;;;;;4.28;1.40;;;16.40;99.90;;;;;;5047475;28;20059;-78
2023/09/21 01:46:27;;;;;;;2.58;1.77;;;16.40;99.90;;;;;;5047920;28;20044;-79
2023/09/21 01:48:53;;;;;;;2.90;1.38;;;16.40;99.90;;;;;;5041656;28;20072;-78
2023/09/21 01:51:19;;;;;;;4.22;1.70;;;16.30;99.90;;;;;;5035255;28;20065;-78
2023/09/21 01:53:45;;;;;;;4.20;1.70;;;16.40;99.90;;;;;;5040103;28;20036;-78
2023/09/21 01:56:11;;;;;;;3.55;1.50;;;16.40;99.90;;;;;;5038656;28;20471;-78
2023/09/21 01:58:37;;;;;;;3.50;1.45;;;16.50;99.90;;;;;;5045406;28;20425;-80
2023/09/21 02:01:06;;;;;;;3.10;1.60;;;16.60;99.90;;;;;;5030865;28;20127;-78
2023/09/21 02:03:32;;;;;;;3.10;1.30;;;16.60;99.90;;;;;;5041690;28;20131;-78
2023/09/21 02:06:02;;;;;;;2.67;1.52;;;16.60;99.90;;;;;;5036280;28;20108;-78
2023/09/21 02:08:28;;;;;;;3.83;1.45;;;16.60;99.90;;;;;;5046473;28;20045;-78
2023/09/21 02:10:53;;;;;;;3.45;1.58;;;16.60;99.90;;;;;;5046053;28;20041;-78
2023/09/21 02:13:20;;;;;;;3.63;1.52;;;16.60;99.90;;;;;;5044867;28;20123;-78
2023/09/21 02:15:47;;;;;;;3.95;1.38;;;16.60;99.90;;;;;;5051511;28;20135;-79
2023/09/21 02:18:13;;;;;;;3.60;1.60;;;16.60;99.90;;;;;;5030494;28;20097;-79
2023/09/21 02:20:40;;;;;;;3.35;1.75;;;16.60;99.90;;;;;;5047652;28;20045;-79
2023/09/21 02:23:06;;;;;;;5.95;1.90;;;16.60;94.80;;;;;;5056691;28;20122;-78
2023/09/21 02:25:40;;;;;;;2.33;1.80;;;16.60;92.60;;;;;;5052081;28;20044;-78
2023/09/21 02:28:11;;;;;;;3.22;1.38;;;16.60;76.90;;;;;;5043761;28;20148;-78
2023/09/21 02:30:39;;;;;;;4.10;1.50;;;16.60;63.10;;;;;;5040224;28;20112;-78
2023/09/21 02:33:05;;;;;;;2.13;1.33;;;16.60;53.60;;;;;;5055828;28;20041;-78
2023/09/21 02:35:33;;;;;;;2.10;1.15;;;16.60;45.90;;;;;;5045187;28;20111;-78
2023/09/21 02:38:00;;;;;;;2.95;1.42;;;16.50;43.30;;;;;;5043202;28;20045;-78
2023/09/21 02:40:26;;;;;;;4.03;1.40;;;16.50;27.10;;;;;;5050771;28;20040;-78
2023/09/21 02:42:53;;;;;;;3.83;1.55;;;16.50;23.50;;;;;;5031276;28;20494;-78
2023/09/21 02:45:23;;;;;;;3.33;1.55;;;16.50;36.00;;;;;;5033553;28;20045;-78
2023/09/21 02:47:51;;;;;;;3.25;1.63;;;16.50;50.80;;;;;;5026209;28;20047;-78
2023/09/21 02:50:27;;;;;;;1.83;1.30;;;16.50;30.40;;;;;;5047320;28;20049;-78
2023/09/21 02:52:54;;;;;;;;;;;16.50;21.10;;;;;;5043780;28;20040;-78
2023/09/21 02:55:21;;;;;;;3.15;1.38;;;16.50;1.00;;;;;;5024322;28;19977;-78
2023/09/21 02:57:54;;;;;;;4.32;1.30;;;16.50;41.70;;;;;;5038413;28;20047;-78
2023/09/21 03:00:34;;;;;;;4.50;1.67;;;16.50;22.10;;;;;;5057328;28;20045;-78
2023/09/21 03:03:03;;;;;;;2.03;1.30;;;16.50;14.60;;;;;;5017115;28;20467;-78
2023/09/21 03:05:28;;;;;;;3.50;1.80;;;16.60;1.00;;;;;;5029800;28;20045;-78
2023/09/21 03:07:55;;;;;;;2.38;1.52;;;16.60;1.00;;;;;;5043370;28;20094;-79
2023/09/21 03:10:22;;;;;;;1.98;1.27;;;16.70;1.00;;;;;;5048924;28;20097;-78
2023/09/21 03:12:48;;;;;;;3.17;1.15;;;16.70;1.00;;;;;;5051047;28;20033;-78
2023/09/21 03:15:16;;;;;;;2.22;1.15;;;16.70;1.00;;;;;;5032142;28;20402;-78
2023/09/21 03:17:42;;;;;;;4.13;1.30;;;16.70;1.00;;;;;;5032721;28;20067;-79
2023/09/21 03:20:25;;;;;;;4.20;1.73;;;16.70;1.00;;;;;;5043909;28;20514;-78
2023/09/21 03:22:53;;;;;;;2.13;1.30;;;16.80;1.00;;;;;;5045951;28;20068;-78
2023/09/21 03:25:25;;;;;;;3.13;1.45;;;16.90;1.00;;;;;;5047884;28;20529;-78
2023/09/21 03:27:52;;;;;;;3.13;1.30;;;16.90;1.00;;;;;;5035008;28;20043;-79
2023/09/21 03:30:18;;;;;;;1.50;1.00;;;16.90;1.00;;;;;;5049610;28;20052;-78
2023/09/21 03:32:44;;;;;;;1.92;1.10;;;16.90;1.00;;;;;;5049259;28;20044;-78
2023/09/21 03:35:11;;;;;;;3.53;1.20;;;17.00;1.00;;;;;;5022346;28;20333;-79
2023/09/21 03:37:45;;;;;;;1.65;1.10;;;17.10;1.00;;;;;;5047616;28;20059;-78
2023/09/21 03:40:11;;;;;;;6.53;1.67;;;17.10;1.00;;;;;;5044652;28;20415;-78
2023/09/21 03:42:37;;;;;;;1.83;1.15;;;17.10;1.00;;;;;;5044175;28;20048;-78
2023/09/21 03:45:07;;;;;;;2.63;1.33;;;17.10;1.00;;;;;;5029236;28;20037;-79
2023/09/21 03:47:33;;;;;;;2.70;1.08;;;17.10;1.00;;;;;;5026675;28;20063;-78
2023/09/21 03:50:00;;;;;;;2.45;1.00;;;17.10;1.00;;;;;;5043305;28;20487;-78
2023/09/21 03:52:27;;;;;;;2.50;1.50;;;17.10;1.00;;;;;;5052862;28;20510;-78
2023/09/21 03:54:54;;;;;;;2.22;1.17;;;17.10;99.90;;;;;;5040205;28;20194;-78
2023/09/21 03:57:20;;;;;;;1.80;1.10;;;17.20;99.90;;;;;;5046543;28;20049;-78
2023/09/21 03:59:46;;;;;;;3.78;1.42;;;17.20;99.90;;;;;;5036939;28;20047;-79
2023/09/21 04:02:15;;;;;;;3.65;1.27;;;17.10;99.90;;;;;;5031251;28;20053;-78
2023/09/21 04:04:44;;;;;;;3.42;1.50;;;17.20;99.90;;;;;;5025855;28;20033;-79
2023/09/21 04:07:15;;;;;;;3.08;1.50;;;17.20;99.90;;;;;;5049729;28;20051;-79
2023/09/21 04:09:41;;;;;;;2.30;1.30;;;17.10;99.90;;;;;;5048226;28;20144;-78
2023/09/21 04:12:07;;;;;;;2.22;1.25;;;17.10;99.90;;;;;;5048021;28;20131;-78
2023/09/21 04:14:33;;;;;;;2.15;1.20;;;17.10;99.90;;;;;;5040395;28;20028;-78
2023/09/21 04:16:58;;;;;;;2.85;1.15;;;17.10;99.90;;;;;;5044058;28;20032;-79
2023/09/21 04:19:24;;;;;;;2.97;1.42;;;17.00;99.90;;;;;;5029696;28;20044;-78
2023/09/21 04:21:50;;;;;;;3.45;1.25;;;17.00;1.00;;;;;;5044868;28;20036;-79
2023/09/21 04:24:17;;;;;;;2.63;1.30;;;17.00;1.00;;;;;;5043886;28;20048;-79
2023/09/21 04:26:43;;;;;;;2.00;1.20;;;16.90;1.00;;;;;;5043674;28;20048;-78
2023/09/21 04:29:09;;;;;;;1.50;1.10;;;16.90;1.00;;;;;;5022120;28;20044;-78
2023/09/21 04:31:35;;;;;;;2.83;1.70;;;16.90;1.00;;;;;;5021917;28;20070;-78
2023/09/21 04:34:02;;;;;;;4.82;1.30;;;16.80;1.00;;;;;;5043162;28;20109;-78
2023/09/21 04:36:27;;;;;;;2.45;1.30;;;16.80;1.00;;;;;;5026903;28;20099;-78
2023/09/21 04:38:53;;;;;;;3.38;2.05;;;16.80;1.00;;;;;;5031610;28;20069;-78
2023/09/21 04:41:20;;;;;;;3.47;1.25;;;16.80;1.00;;;;;;5026064;28;20190;-77
2023/09/21 04:43:45;;;;;;;2.38;1.40;;;16.70;1.00;;;;;;5041302;28;20045;-78
2023/09/21 04:46:14;;;;;;;2.72;1.20;;;16.70;1.00;;;;;;5045714;28;20050;-78
2023/09/21 04:48:41;;;;;;;4.50;1.48;;;16.70;1.00;;;;;;5038708;28;20046;-78
2023/09/21 04:51:11;;;;;;;3.72;1.58;;;16.70;1.00;;;;;;5043941;28;20601;-78
2023/09/21 04:53:39;;;;;;;4.03;1.45;;;16.80;1.00;;;;;;5046835;28;20065;-79
2023/09/21 04:56:05;;;;;;;1.98;1.20;;;16.80;1.00;;;;;;5053866;28;20127;-78
2023/09/21 04:58:30;;;;;;;3.28;1.30;;;16.80;1.00;;;;;;5054282;28;20182;-78
2023/09/21 05:00:56;;;;;;;3.85;1.05;;;16.80;1.00;;;;;;5024620;28;20055;-78
2023/09/21 05:03:22;;;;;;;2.10;1.13;;;16.90;1.00;;;;;;5046197;28;20652;-78
2023/09/21 05:05:49;;;;;;;2.67;1.10;;;17.00;1.00;;;;;;5041976;28;20049;-77
2023/09/21 05:08:14;;;;;;;2.60;1.30;;;17.10;1.00;;;;;;5044756;28;20045;-77
2023/09/21 05:10:40;;;;;;;2.45;1.48;;;17.20;99.90;;;;;;5027491;28;20487;-78
2023/09/21 05:13:06;;;;;;;2.25;1.08;;;17.20;99.90;;;;;;5044903;28;20531;-78
2023/09/21 05:15:32;;;;;;;2.58;1.35;;;17.30;99.90;;;;;;5045733;28;20048;-78
2023/09/21 05:17:58;;;;;;;2.83;1.33;;;17.30;99.90;;;;;;5038029;28;20054;-79
2023/09/21 05:20:23;;;;;;;2.53;1.27;;;17.30;99.90;;;;;;5045724;28;20047;-78
2023/09/21 05:22:51;;;;;;;2.35;1.02;;;17.30;99.90;;;;;;5029760;28;20614;-78
2023/09/21 05:25:16;;;;;;;3.35;1.40;;;17.40;99.90;;;;;;5026237;28;20052;-78
2023/09/21 05:27:43;;;;;;;2.75;1.40;;;17.40;99.90;;;;;;5040523;28;20123;-79
2023/09/21 05:30:09;;;;;;;3.80;1.52;;;17.50;99.90;;;;;;5039139;28;20060;-79
2023/09/21 05:32:36;;;;;;;6.10;1.85;;;17.60;99.90;;;;;;5044877;28;20100;-79
2023/09/21 05:35:06;;;;;;;2.78;1.33;;;17.70;99.90;;;;;;5026790;28;20040;-79
2023/09/21 05:37:32;;;;;;;2.58;1.30;;;17.80;99.90;;;;;;5048940;28;20062;-80
2023/09/21 05:39:57;;;;;;;3.25;1.38;;;17.90;99.90;;;;;;5046983;28;20124;-80
2023/09/21 05:42:26;;;;;;;2.33;1.30;;;17.90;99.90;;;;;;5050064;28;20048;-80
2023/09/21 05:44:52;;;;;;;2.95;1.17;;;18.00;99.90;;;;;;5040585;28;20044;-79
2023/09/21 05:47:17;;;;;;;2.83;1.30;;;18.00;99.90;;;;;;5051834;28;20139;-79
2023/09/21 05:49:43;;;;;;;1.75;1.15;;;18.10;99.90;;;;;;5050111;28;20498;-79
2023/09/21 05:52:12;;;;;;;2.78;1.45;;;18.20;99.90;;;;;;5048189;28;20037;-80
2023/09/21 05:54:44;;;;;;;2.75;1.17;;;18.20;99.90;;;;;;5050954;28;20394;-80
2023/09/21 05:57:11;;;;;;;3.08;1.13;;;18.30;99.90;;;;;;5051197;28;20063;-79
2023/09/21 05:59:37;;;;;;;3.10;1.30;;;18.30;99.90;;;;;;5048262;28;20129;-80
2023/09/21 06:02:05;;;;;;;3.00;1.20;;;18.40;99.90;;;;;;5051035;28;20108;-80
2023/09/21 06:04:31;;;;;;;2.85;1.30;;;18.40;99.90;;;;;;5050693;28;20048;-79
2023/09/21 06:06:58;;;;;;;3.00;1.30;;;18.50;99.90;;;;;;5042466;28;20048;-79
2023/09/21 06:09:24;;;;;;;3.88;1.20;;;18.50;99.90;;;;;;5052678;28;20120;-79
2023/09/21 06:11:50;;;;;;;4.53;1.20;;;18.50;99.90;;;;;;5043579;28;20090;-79
2023/09/21 06:14:20;;;;;;;2.90;1.02;;;18.50;99.90;;;;;;5025078;28;20043;-79
2023/09/21 06:16:46;;;;;;;2.80;1.00;;;18.50;99.90;;;;;;5053437;28;20158;-79
2023/09/21 06:19:12;;;;;;;6.65;1.35;;;18.50;99.90;;;;;;5043143;28;20511;-79
2023/09/21 06:21:48;;;;;;;3.65;1.60;;;18.50;99.90;;;;;;5051069;28;20892;-80
2023/09/21 06:24:15;;;;;;;2.17;1.25;;;18.50;99.90;;;;;;5056614;28;20123;-79
2023/09/21 06:26:40;;;;;;;3.30;1.10;;;18.60;99.90;;;;;;5053023;28;20076;-80
2023/09/21 06:29:06;;;;;;;3.20;1.20;;;18.60;99.90;;;;;;5051552;28;20072;-79
2023/09/21 06:31:32;;;;;;;3.47;1.23;;;18.70;99.90;;;;;;5052351;28;20548;-79
2023/09/21 06:33:59;;;;;;;5.13;1.13;;;18.70;99.90;;;;;;5040940;28;20052;-79
2023/09/21 06:36:28;;;;;;;4.10;1.35;;;18.70;99.90;;;;;;5044518;28;20053;-80
2023/09/21 06:38:55;;;;;;;4.05;1.20;;;18.70;99.90;;;;;;5024806;28;20041;-79
2023/09/21 06:41:22;;;;;;;3.78;1.58;;;18.70;99.90;;;;;;5029370;28;20761;-79
2023/09/21 06:43:47;;;;;;;2.65;1.20;;;18.80;99.90;;;;;;5038552;28;20552;-79
2023/09/21 06:46:13;;;;;;;2.10;1.38;;;18.80;99.90;;;;;;5041319;28;20040;-79
2023/09/21 06:48:41;;;;;;;3.08;1.30;;;18.70;99.90;;;;;;5053258;28;20090;-79
2023/09/21 06:51:10;;;;;;;2.10;1.08;;;18.70;99.90;;;;;;5028999;28;20047;-79
2023/09/21 06:53:36;;;;;;;3.03;0.98;;;18.70;99.90;;;;;;5046107;28;20390;-79
2023/09/21 06:56:02;;;;;;;1.85;1.45;;;18.70;99.90;;;;;;5026276;28;20040;-80
2023/09/21 06:58:30;;;;;;;3.78;1.30;;;18.70;99.90;;;;;;5050685;28;20044;-79
2023/09/21 07:00:59;;;;;;;2.67;1.30;;;18.60;99.90;;;;;;5035041;28;20137;-79
2023/09/21 07:03:25;;;;;;;2.92;1.33;;;18.60;99.90;;;;;;5060860;28;20472;-79
2023/09/21 07:05:51;;;;;;;3.20;1.40;;;18.70;99.90;;;;;;5042225;28;20110;-79
2023/09/21 07:08:20;;;;;;;1.98;1.10;;;18.60;99.90;;;;;;5050258;28;20045;-79
2023/09/21 07:10:46;;;;;;;3.97;1.45;;;18.70;99.90;;;;;;5051246;28;20056;-79
2023/09/21 07:13:13;;;;;;;3.38;1.40;;;18.70;99.90;;;;;;5048025;28;20054;-79
2023/09/21 07:15:38;;;;;;;2.10;1.40;;;18.40;99.90;;;;;;5042947;28;20107;-79
2023/09/21 07:18:05;;;;;;;2.58;1.30;;;18.20;99.90;;;;;;5029305;28;20072;-79
2023/09/21 07:20:32;;;;;;;2.05;1.33;;;17.90;99.90;;;;;;5029649;28;20050;-78
2023/09/21 07:22:58;;;;;;;2.10;1.40;;;17.80;1.00;;;;;;5047109;28;20044;-78
2023/09/21 07:25:30;;;;;;;4.25;1.33;;;17.60;1.00;;;;;;5047275;28;20045;-78
2023/09/21 07:27:57;;;;;;;2.85;1.40;;;17.50;1.00;;;;;;5024055;28;20708;-79
2023/09/21 07:30:25;;;;;;;2.10;1.27;;;17.50;1.00;;;;;;5029320;28;20078;-80
2023/09/21 07:32:54;;;;;;;3.17;1.30;;;17.40;1.00;;;;;;5049082;28;20094;-79
2023/09/21 07:35:21;;;;;;;2.63;1.38;;;17.40;42.20;;;;;;5049335;28;20040;-79
2023/09/21 07:37:50;;;;;;;2.33;1.55;;;17.50;93.40;;;;;;5023462;28;20042;-79
2023/09/21 07:40:21;;;;;;;9.98;2.80;;;17.60;99.90;;;;;;5029296;28;20048;-80
2023/09/21 07:42:49;;;;;;;1.75;1.20;;;17.70;99.90;;;;;;5046765;28;20165;-78
2023/09/21 07:45:15;;;;;;;2.58;1.48;;;17.80;99.90;;;;;;5046232;28;20048;-79
2023/09/21 07:47:41;;;;;;;1.63;1.30;;;17.90;97.00;;;;;;5062977;28;20437;-79
2023/09/21 07:50:07;;;;;;;2.42;1.30;;;18.20;44.50;;;;;;5045229;28;20074;-79
2023/09/21 07:52:34;;;;;;;3.92;2.13;;;18.30;1.00;;;;;;5040588;28;20049;-78
2023/09/21 07:55:02;;;;;;;2.03;1.27;;;18.50;1.00;;;;;;5033031;28;20505;-80
2023/09/21 07:57:32;;;;;;;5.05;1.42;;;18.60;1.00;;;;;;5050337;28;20514;-79
2023/09/21 07:59:58;;;;;;;2.03;1.45;;;18.80;1.00;;;;;;5046314;28;20074;-80
2023/09/21 08:02:23;;;;;;;2.97;1.80;;;18.90;1.00;;;;;;5053583;28;20079;-80
2023/09/21 08:04:49;;;;;;;2.80;1.45;;;18.90;99.90;;;;;;5046437;28;20041;-80
2023/09/21 08:07:15;;;;;;;2.67;1.50;;;18.70;1.00;;;;;;5044159;28;20045;-79
2023/09/21 08:09:41;;;;;;;3.22;1.63;;;18.50;1.00;;;;;;5043703;28;20379;-80
2023/09/21 08:12:07;;;;;;;3.90;1.67;;;18.30;1.00;;;;;;5042661;28;20040;-80
2023/09/21 08:14:34;;;;;;;4.88;1.60;;;18.20;1.00;;;;;;5040694;28;20033;-79
2023/09/21 08:17:00;;;;;;;2.78;1.58;;;18.00;35.20;;;;;;5041637;28;20522;-79
2023/09/21 08:19:26;;;;;;;4.03;1.90;;;17.90;96.20;;;;;;5038569;28;20049;-80
2023/09/21 08:21:51;;;;;;;3.90;1.70;;;17.90;99.90;;;;;;5030475;28;20131;-80
2023/09/21 08:24:17;;;;;;;3.95;1.55;;;17.90;99.90;;;;;;5043202;28;20044;-80
2023/09/21 08:26:43;;;;;;;3.55;1.80;;;17.90;99.90;;;;;;5040720;28;20048;-79
2023/09/21 08:29:09;;;;;;;3.67;1.55;;;17.90;99.90;;;;;;5031914;28;20150;-80
2023/09/21 08:31:34;;;;;;;2.97;1.65;;;17.80;99.90;;;;;;5031305;28;20155;-80
2023/09/21 08:34:00;;;;;;;4.25;1.80;;;17.70;99.90;;;;;;5051234;28;20601;-80
2023/09/21 08:36:28;;;;;;;3.47;1.70;;;17.70;99.90;;;;;;5054001;28;20494;-80
2023/09/21 08:38:54;;;;;;;2.47;1.60;;;17.70;99.90;;;;;;5042620;28;20042;-79
2023/09/21 08:41:19;;;;;;;3.00;1.40;;;17.70;99.90;;;;;;5030564;28;20096;-79
2023/09/21 08:43:47;;;;;;;3.47;1.63;;;17.60;99.90;;;;;;5033963;28;20033;-79
2023/09/21 08:46:14;;;;;;;2.63;1.55;;;17.60;99.90;;;;;;5031351;28;20126;-79
2023/09/21 08:48:40;;;;;;;8.18;2.10;;;17.50;1.00;;;;;;5044294;28;20828;-80
2023/09/21 08:51:15;;;;;;;3.00;1.55;;;17.50;1.00;;;;;;5043040;28;20033;-79
2023/09/21 08:53:41;;;;;;;3.85;1.63;;;17.40;1.00;;;;;;5032126;28;20075;-81
2023/09/21 08:56:08;;;;;;;4.18;1.90;;;17.30;1.00;;;;;;5047812;28;20049;-79
2023/09/21 08:58:40;;;;;;;5.00;2.30;;;17.30;1.00;;;;;;5046332;28;20048;-79
2023/09/21 09:01:07;;;;;;;2.15;1.75;;;17.30;1.00;;;;;;5032170;28;20047;-79
2023/09/21 09:03:34;;;;;;;6.43;2.35;;;17.30;1.00;;;;;;5048291;28;20616;-80
2023/09/21 09:05:59;;;;;;;3.05;1.80;;;17.30;1.00;;;;;;5049246;28;20033;-80
2023/09/21 09:08:27;;;;;;;3.60;2.05;;;17.20;1.00;;;;;;5048268;28;20043;-79
2023/09/21 09:10:53;;;;;;;2.55;1.50;;;17.20;26.60;;;;;;5037336;28;20110;-81
2023/09/21 09:13:40;;;;;;;3.17;1.80;;;17.30;77.40;;;;;;5048531;28;20059;-79
2023/09/21 09:16:08;;;;;;;2.42;1.55;;;17.30;99.90;;;;;;5053803;28;20106;-79
2023/09/21 09:18:35;;;;;;;5.10;2.30;;;17.10;99.90;;;;;;5052987;28;20178;-79
2023/09/21 09:21:00;;;;;;;5.72;2.50;;;17.10;99.90;;;;;;5053239;28;20044;-79
2023/09/21 09:23:26;;;;;;;2.67;1.90;;;17.10;99.90;;;;;;5051576;28;20056;-79
2023/09/21 09:25:54;;;;;;;3.17;2.22;;;17.10;99.90;;;;;;5037155;28;20127;-79
2023/09/21 09:28:21;;;;;;;2.58;1.88;;;17.20;99.90;;;;;;5054032;28;20049;-79
2023/09/21 09:30:48;;;;;;;4.05;2.00;;;17.20;99.90;;;;;;5037879;28;20079;-79
2023/09/21 09:33:15;;;;;;;7.20;2.63;;;17.10;99.90;;;;;;5053137;28;20048;-79
2023/09/21 09:35:41;;;;;;;3.13;2.08;;;17.10;99.90;;;;;;5030383;28;20044;-80
2023/09/21 09:38:11;;;;;;;5.25;2.15;;;17.20;99.90;;;;;;5035333;28;20090;-79
2023/09/21 09:40:38;;;;;;;4.40;2.50;;;17.10;99.90;;;;;;5036597;28;20060;-79
2023/09/21 09:43:07;;;;;;;3.13;2.03;;;17.00;99.90;;;;;;5045495;28;20483;-79
2023/09/21 09:45:38;;;;;;;4.47;2.20;;;17.00;99.90;;;;;;5048927;28;20047;-79
2023/09/21 09:48:11;;;;;;;4.72;2.35;;;17.00;99.90;;;;;;5036730;28;20043;-80
2023/09/21 09:50:41;;;;;;;2.42;2.00;;;16.90;99.90;;;;;;5044863;28;20056;-79
2023/09/21 09:53:10;;;;;;;4.03;2.25;;;16.80;99.90;;;;;;5037761;28;20517;-79
2023/09/21 09:55:37;;;;;;;3.47;2.47;;;16.80;99.90;;;;;;5043876;28;20044;-80
2023/09/21 09:58:08;;;;;;;2.95;2.25;;;16.80;99.90;;;;;;5032439;28;20098;-80
2023/09/21 10:00:39;;;;;;;2.95;2.33;;;16.80;99.90;;;;;;5045825;28;20051;-79
2023/09/21 10:03:09;;;;;;;3.90;2.65;;;16.90;99.90;;;;;;5045851;28;20041;-79
2023/09/21 10:05:39;;;;;;;3.42;2.42;;;16.80;99.90;;;;;;5044812;28;20518;-80
2023/09/21 10:08:07;;;;;;;1.55;1.20;;;16.80;99.90;;;;;;5050150;28;20513;-79
2023/09/21 10:10:44;;;;;;;1.58;1.00;;;16.80;99.90;;;;;;5035462;28;20086;-79
2023/09/21 10:13:11;;;;;;;2.33;0.85;;;16.50;99.90;;;;;;5040337;28;20418;-80
2023/09/21 10:15:37;;;;;;;1.88;0.90;;;16.30;99.90;;;;;;5022196;28;20044;-79
2023/09/21 10:18:04;;;;;;;1.63;0.80;;;16.30;99.90;;;;;;5051804;28;20114;-79
2023/09/21 10:20:34;;;;;;;1.40;0.50;;;16.30;99.90;;;;;;5050559;28;20051;-79
2023/09/21 10:23:04;;;;;;;2.40;0.60;;;16.20;99.90;;;;;;5043391;28;20543;-80
2023/09/21 10:25:41;;;;;;;1.92;0.50;;;16.10;99.90;;;;;;5053098;28;20106;-79
2023/09/21 10:28:34;;;;;;;0.90;0.30;;;16.00;99.90;;;;;;5053828;28;20098;-78
2023/09/21 10:31:06;;;;;;;0.50;0.40;;;15.80;99.90;;;;;;5041040;28;20068;-79
2023/09/21 10:33:51;;;;;;;1.08;0.30;;;15.70;99.90;;;;;;5051099;28;20105;-79
2023/09/21 10:36:30;;;;;;;1.90;0.43;;;15.60;99.90;;;;;;5051141;28;20084;-79
2023/09/21 10:39:11;;;;;;;0.43;0.30;;;15.50;99.90;;;;;;5052774;28;20040;-79
2023/09/21 10:41:47;;;;;;;0.75;0.65;;;15.40;99.90;;;;;;5054232;28;20423;-79
2023/09/21 10:44:51;;;;;;;2.20;0.43;;;15.40;99.90;;;;;;5045190;28;20052;-79
2023/09/21 10:47:33;;;;;;;0.70;0.40;;;15.30;99.90;;;;;;5039760;28;20107;-79
2023/09/21 10:50:07;;;;;;;0.80;0.43;;;15.30;99.90;;;;;;5034035;28;20062;-78
2023/09/21 10:52:33;;;;;;;1.80;0.57;;;15.30;99.90;;;;;;5034084;28;20055;-80
2023/09/21 10:54:59;;;;;;;2.35;0.93;;;15.40;99.90;;;;;;5034776;28;20364;-79
2023/09/21 10:57:26;;;;;;;2.17;0.50;;;15.50;99.90;;;;;;5050475;28;20098;-79
2023/09/21 10:59:52;;;;;;;1.10;0.45;;;15.50;99.90;;;;;;5050873;28;20165;-80
2023/09/21 11:02:22;;;;;;;0.95;0.40;;;15.60;99.90;;;;;;5048222;28;20135;-79
2023/09/21 11:04:49;;;;;;;0.70;0.20;;;15.70;99.90;;;;;;5051021;28;20036;-80
2023/09/21 11:07:17;;;;;;;0.85;0.40;;;15.70;99.90;;;;;;5029919;28;20041;-81
2023/09/21 11:09:46;;;;;;;1.20;0.40;;;15.70;99.90;;;;;;5033936;28;20050;-80
2023/09/21 11:12:14;;;;;;;0.95;0.40;;;15.70;99.90;;;;;;5050391;28;20076;-79
2023/09/21 11:14:47;;;;;;;2.05;0.80;;;15.70;99.90;;;;;;5033858;28;20174;-80
2023/09/21 11:17:16;;;;;;;1.25;0.50;;;15.80;99.90;;;;;;5050516;28;20044;-80
2023/09/21 11:19:42;;;;;;;0.60;0.35;;;15.80;99.90;;;;;;5050371;28;20419;-79
2023/09/21 11:22:12;;;;;;;1.08;0.40;;;16.00;99.90;;;;;;5052527;28;20117;-80
2023/09/21 11:24:38;;;;;;;0.93;0.40;;;16.00;99.90;;;;;;5050443;28;20135;-80
2023/09/21 11:27:09;;;;;;;1.20;0.50;;;16.10;99.90;;;;;;5051737;28;20123;-80
2023/09/21 11:29:40;;;;;;;2.30;0.40;;;16.10;99.90;;;;;;5032849;28;20711;-79
2023/09/21 11:32:17;;;;;;;0.60;0.40;;;16.00;99.90;;;;;;5037945;28;20032;-80
2023/09/21 11:34:44;;;;;;;1.83;0.50;;;15.80;99.90;;;;;;5033627;28;20043;-79
2023/09/21 11:37:11;;;;;;;0.90;0.50;;;15.70;99.90;;;;;;5050685;28;20051;-80
2023/09/21 11:39:38;;;;;;;0.90;0.60;;;15.70;99.90;;;;;;5033387;28;20037;-80
2023/09/21 11:42:06;;;;;;;1.40;0.40;;;15.80;99.90;;;;;;5059205;28;20048;-80
2023/09/21 11:44:34;;;;;;;1.35;0.60;;;15.90;99.90;;;;;;5053802;28;20117;-79
2023/09/21 11:47:01;;;;;;;0.82;0.50;;;16.00;99.90;;;;;;5040007;28;20036;-80
2023/09/21 11:49:40;;;;;;;1.40;0.50;;;16.10;99.90;;;;;;5033369;28;20039;-81
2023/09/21 11:52:06;;;;;;;1.75;0.70;;;16.30;99.90;;;;;;5039190;28;20483;-81
2023/09/21 11:54:35;;;;;;;1.70;0.70;;;16.50;99.90;;;;;;5045232;28;20044;-80
2023/09/21 11:57:05;;;;;;;1.05;0.50;;;16.50;99.90;;;;;;5038483;28;20754;-80
2023/09/21 11:59:36;;;;;;;1.17;0.60;;;16.40;99.90;;;;;;5048669;28;20037;-82
2023/09/21 12:02:06;;;;;;;0.50;0.40;;;16.40;99.90;;;;;;5047505;28;20044;-81
2023/09/21 12:04:34;;;;;;;0.60;0.30;;;16.20;99.90;;;;;;5050767;28;20059;-81
2023/09/21 12:07:00;;;;;;;0.45;0.35;;;16.40;99.90;;;;;;5032203;28;20041;-81
2023/09/21 12:09:26;;;;;;;1.35;0.40;;;16.40;99.90;;;;;;5030511;28;20043;-81
2023/09/21 12:11:54;;;;;;;1.42;0.40;;;16.20;99.90;;;;;;5045327;28;20390;-80
2023/09/21 12:14:23;;;;;;;0.77;0.55;;;16.10;99.90;;;;;;5043115;28;20372;-81
2023/09/21 12:16:53;;;;;;;1.75;0.52;;;15.90;99.90;;;;;;5048890;28;20033;-81
2023/09/21 12:19:19;;;;;;;0.60;0.60;;;15.80;99.90;;;;;;5038602;28;20465;-81
2023/09/21 12:21:47;;;;;;;1.27;0.88;;;15.80;99.90;;;;;;5048676;28;20399;-81
2023/09/21 12:24:12;;;;;;;0.93;0.57;;;15.80;99.90;;;;;;5049022;28;20178;-80
2023/09/21 12:26:38;;;;;;;0.88;0.60;;;15.80;99.90;;;;;;5045611;28;20119;-81
2023/09/21 12:29:04;;;;;;;0.95;0.60;;;15.80;99.90;;;;;;5033135;28;20032;-81
2023/09/21 12:31:30;;;;;;;0.60;0.50;;;15.80;99.90;;;;;;5046136;28;20510;-80
2023/09/21 12:33:56;;;;;;;0.73;0.40;;;15.90;99.90;;;;;;5050257;28;20045;-81
2023/09/21 12:36:24;;;;;;;0.50;0.30;;;15.80;99.90;;;;;;5049869;28;20560;-81
2023/09/21 12:38:51;;;;;;;0.88;0.40;;;15.80;99.90;;;;;;5046796;28;20087;-81
2023/09/21 12:41:16;;;;;;;0.50;0.40;;;15.70;99.90;;;;;;5047706;28;20048;-81
2023/09/21 12:43:43;;;;;;;0.47;0.30;;;15.70;99.90;;;;;;5050100;28;20063;-81
2023/09/21 12:46:08;;;;;;;0.80;0.30;;;15.60;99.90;;;;;;5048538;28;20458;-80
2023/09/21 12:48:38;;;;;;;0.85;0.30;;;15.60;99.90;;;;;;5041780;28;20128;-80
2023/09/21 12:51:04;;;;;;;0.77;0.40;;;15.60;99.90;;;;;;5044481;28;20044;-81
2023/09/21 12:53:30;;;;;;;2.65;0.50;;;15.60;99.90;;;;;;5050360;28;20052;-80